Flight Track Log - Related Links

Times and Time Zones

All times are in EDT time to prevent confusion due to time zone crossing. See the AUB1638 flight status page for this flight to view local times or setup timezone preferences in your user account.

Time Position Orientation Groundspeed Altitude Reporting Facility
EDT Latitude Longitude Course Direction KTS MPH feet Rate Location/Type
Tue 09:01:00 AM 48.5950 12.0553 36° Northeast  Level Estimated
Tue 09:02:00 AM 48.6552 12.1230 37° Northeast  Level Estimated
Tue 09:03:00 AM 48.7154 12.1908 37° Northeast  Level Estimated
Tue 09:04:00 AM 48.7755 12.2588 37° Northeast  Level Estimated
Tue 09:05:00 AM 48.8356 12.3270 37° Northeast  Level Estimated
Tue 09:06:00 AM 48.8956 12.3954 37° Northeast  Level Estimated
Tue 09:07:00 AM 48.9556 12.4639 37° Northeast  Level Estimated
Tue 09:08:00 AM 49.0156 12.5326 37° Northeast  Level Estimated
Tue 09:09:00 AM 49.0755 12.6014 37° Northeast  Level Estimated
Tue 09:10:00 AM 49.1354 12.6704 37° Northeast  Level Estimated
Tue 09:11:00 AM 49.1952 12.7396 37° Northeast  Level Estimated
Tue 09:12:00 AM 49.2550 12.8089 37° Northeast  Level Estimated
Tue 09:13:00 AM 49.3148 12.8784 37° Northeast  Level Estimated
Tue 09:14:00 AM 49.3745 12.9481 37° Northeast  Level Estimated
Tue 09:15:00 AM 49.4342 13.0180 37° Northeast  Level Estimated
Tue 09:16:00 AM 49.4938 13.0880 37° Northeast  Level Estimated
Tue 09:17:00 AM 49.5534 13.1582 37° Northeast  Level Estimated
Tue 09:18:00 AM 49.6130 13.2285 37° Northeast  Level Estimated
Tue 09:19:00 AM 49.6725 13.2991 37° Northeast  Level Estimated
Tue 09:20:00 AM 49.7319 13.3698 38° Northeast  Level Estimated
Tue 09:21:00 AM 49.7913 13.4407 38° Northeast  Level Estimated
Tue 09:22:00 AM 49.8507 13.5117 38° Northeast  Level Estimated
Tue 09:23:00 AM 49.9100 13.5829 38° Northeast  Level Estimated
Tue 09:24:00 AM 49.9693 13.6543 38° Northeast  Level Estimated
Tue 09:25:00 AM 50.0286 13.7259 38° Northeast  Level Estimated
Tue 09:26:00 AM 50.0878 13.7977 38° Northeast  Level Estimated
Tue 09:27:00 AM 50.1469 13.8696 38° Northeast  Level Estimated
Tue 09:28:00 AM 50.2060 13.9417 38° Northeast  Level Estimated
Tue 09:29:00 AM 50.2651 14.0140 38° Northeast  Level Estimated
Tue 09:30:00 AM 50.3241 14.0865 38° Northeast  Level Estimated
Tue 09:31:00 AM 50.3831 14.1591 38° Northeast  Level Estimated
Tue 09:32:00 AM 50.4420 14.2320 38° Northeast  Level Estimated
Tue 09:33:00 AM 50.5009 14.3050 38° Northeast  Level Estimated
Tue 09:34:00 AM 50.5598 14.3782 38° Northeast  Level Estimated
Tue 09:35:00 AM 50.6185 14.4515 38° Northeast  Level Estimated
Tue 09:36:00 AM 50.6773 14.5251 38° Northeast  Level Estimated
Tue 09:37:00 AM 50.7360 14.5989 38° Northeast  Level Estimated
Tue 09:38:00 AM 50.7947 14.6728 39° Northeast  Level Estimated
Tue 09:39:00 AM 50.8533 14.7469 39° Northeast  Level Estimated
Tue 09:40:00 AM 50.9118 14.8212 39° Northeast  Level Estimated
Tue 09:41:00 AM 50.9703 14.8957 39° Northeast  Level Estimated
Tue 09:42:00 AM 51.0288 14.9704 39° Northeast  Level Estimated
Tue 09:43:00 AM 51.0872 15.0452 39° Northeast  Level Estimated
Tue 09:44:00 AM 51.1456 15.1203 39° Northeast  Level Estimated
Tue 09:45:00 AM 51.2039 15.1956 39° Northeast  Level Estimated
Tue 09:46:00 AM 51.2622 15.2710 39° Northeast  Level Estimated
Tue 09:47:00 AM 51.3204 15.3466 39° Northeast  Level Estimated
Tue 09:48:00 AM 51.3786 15.4225 39° Northeast  Level Estimated
Tue 09:49:00 AM 51.4367 15.4985 39° Northeast  Level Estimated
Tue 09:50:00 AM 51.4948 15.5747 39° Northeast  Level Estimated
Tue 09:51:00 AM 51.5528 15.6511 39° Northeast  Level Estimated
Tue 09:52:00 AM 51.6108 15.7277 39° Northeast  Level Estimated
Tue 09:53:00 AM 51.6687 15.8045 39° Northeast  Level Estimated
Tue 09:54:00 AM 51.7266 15.8814 39° Northeast  Level Estimated
Tue 09:55:00 AM 51.7844 15.9586 40° Northeast  Level Estimated
Tue 09:56:00 AM 51.8422 16.0360 40° Northeast  Level Estimated
Tue 09:57:00 AM 51.8999 16.1136 40° Northeast  Level Estimated
Tue 09:58:00 AM 51.9576 16.1914 40° Northeast  Level Estimated
Tue 09:59:00 AM 52.0152 16.2694 40° Northeast  Level Estimated
Tue 10:00:00 AM 52.0728 16.3475 40° Northeast  Level Estimated
Tue 10:01:00 AM 52.1303 16.4259 40° Northeast  Level Estimated
Tue 10:02:00 AM 52.1878 16.5045 40° Northeast  Level Estimated
Tue 10:03:00 AM 52.2452 16.5833 40° Northeast  Level Estimated
Tue 10:04:00 AM 52.3026 16.6623 40° Northeast  Level Estimated
Tue 10:05:00 AM 52.3599 16.7415 40° Northeast  Level Estimated
Tue 10:06:00 AM 52.4171 16.8209 40° Northeast  Level Estimated
Tue 10:07:00 AM 52.4210 16.8263 40° Northeast  Level Estimated
Tue 10:08:00 AM 52.4210 16.8263 72° East  Level Estimated
Tue 10:09:00 AM 52.4210 16.8263 72° East  Level Estimated
Tue 10:10:00 AM 52.4210 16.8263 72° East  Level Estimated
Tue 10:11:00 AM 52.4210 16.8263 72° East  Level Estimated
Tue 10:12:00 AM 52.4210 16.8263 72° East  Level Estimated
Tue 10:13:00 AM 52.4210 16.8263 72° East  Level Estimated
Tue 10:14:00 AM 52.4210 16.8263 72° East  Level Estimated
Tue 10:15:00 AM 52.4210 16.8263 72° East  Level Estimated
Tue 10:16:00 AM 52.4210 16.8263 72° East  Level Estimated

Login

Don't have an account? Register now (free) for customized features, flight alerts, and more!